sensor_id;sensor_type;location;lat;lon;timestamp;P1;durP1;ratioP1;P2;durP2;ratioP2
13847;SDS011;6994;49.752;6.094;2023-02-15T00:01:05;33.88;;;18.30;;
13847;SDS011;6994;49.752;6.094;2023-02-15T00:03:32;33.00;;;18.45;;
13847;SDS011;6994;49.752;6.094;2023-02-15T00:05:59;32.33;;;18.33;;
13847;SDS011;6994;49.752;6.094;2023-02-15T00:08:26;30.20;;;17.45;;
13847;SDS011;6994;49.752;6.094;2023-02-15T00:11:02;25.60;;;16.75;;
13847;SDS011;6994;49.752;6.094;2023-02-15T00:13:21;30.52;;;17.70;;
13847;SDS011;6994;49.752;6.094;2023-02-15T00:15:48;40.58;;;19.77;;
13847;SDS011;6994;49.752;6.094;2023-02-15T00:18:15;33.78;;;18.30;;
13847;SDS011;6994;49.752;6.094;2023-02-15T00:20:42;39.33;;;18.90;;
13847;SDS011;6994;49.752;6.094;2023-02-15T00:23:10;32.67;;;18.92;;
13847;SDS011;6994;49.752;6.094;2023-02-15T00:25:37;40.00;;;20.12;;
13847;SDS011;6994;49.752;6.094;2023-02-15T00:28:04;48.77;;;28.77;;
13847;SDS011;6994;49.752;6.094;2023-02-15T00:30:32;36.35;;;22.02;;
13847;SDS011;6994;49.752;6.094;2023-02-15T00:32:59;38.53;;;20.55;;
13847;SDS011;6994;49.752;6.094;2023-02-15T00:35:26;37.03;;;19.83;;
13847;SDS011;6994;49.752;6.094;2023-02-15T00:37:54;32.35;;;19.70;;
13847;SDS011;6994;49.752;6.094;2023-02-15T00:40:21;30.58;;;17.50;;
13847;SDS011;6994;49.752;6.094;2023-02-15T00:42:48;31.12;;;18.12;;
13847;SDS011;6994;49.752;6.094;2023-02-15T00:45:15;33.47;;;18.60;;
13847;SDS011;6994;49.752;6.094;2023-02-15T00:47:43;30.83;;;19.08;;
13847;SDS011;6994;49.752;6.094;2023-02-15T00:50:10;42.87;;;27.53;;
13847;SDS011;6994;49.752;6.094;2023-02-15T00:52:38;39.38;;;21.20;;
13847;SDS011;6994;49.752;6.094;2023-02-15T00:55:06;33.83;;;19.92;;
13847;SDS011;6994;49.752;6.094;2023-02-15T00:57:33;31.48;;;17.92;;
13847;SDS011;6994;49.752;6.094;2023-02-15T01:00:00;33.78;;;17.62;;
13847;SDS011;6994;49.752;6.094;2023-02-15T01:02:28;46.17;;;28.20;;
13847;SDS011;6994;49.752;6.094;2023-02-15T01:04:55;46.65;;;20.48;;
13847;SDS011;6994;49.752;6.094;2023-02-15T01:07:22;26.98;;;17.85;;
13847;SDS011;6994;49.752;6.094;2023-02-15T01:09:49;38.40;;;25.60;;
13847;SDS011;6994;49.752;6.094;2023-02-15T01:12:16;36.40;;;20.00;;
13847;SDS011;6994;49.752;6.094;2023-02-15T01:14:44;37.53;;;18.95;;
13847;SDS011;6994;49.752;6.094;2023-02-15T01:17:12;30.80;;;17.00;;
13847;SDS011;6994;49.752;6.094;2023-02-15T01:19:39;33.63;;;18.05;;
13847;SDS011;6994;49.752;6.094;2023-02-15T01:22:06;34.97;;;17.37;;
13847;SDS011;6994;49.752;6.094;2023-02-15T01:24:33;42.57;;;26.00;;
13847;SDS011;6994;49.752;6.094;2023-02-15T01:27:00;32.88;;;18.73;;
13847;SDS011;6994;49.752;6.094;2023-02-15T01:29:28;37.03;;;18.27;;
13847;SDS011;6994;49.752;6.094;2023-02-15T01:31:55;30.27;;;17.25;;
13847;SDS011;6994;49.752;6.094;2023-02-15T01:34:22;28.75;;;17.08;;
13847;SDS011;6994;49.752;6.094;2023-02-15T01:36:49;41.83;;;26.00;;
13847;SDS011;6994;49.752;6.094;2023-02-15T01:39:16;35.15;;;21.17;;
13847;SDS011;6994;49.752;6.094;2023-02-15T01:41:44;33.70;;;18.62;;
13847;SDS011;6994;49.752;6.094;2023-02-15T01:52:37;36.40;;;19.73;;
13847;SDS011;6994;49.752;6.094;2023-02-15T01:55:04;34.40;;;19.62;;
13847;SDS011;6994;49.752;6.094;2023-02-15T01:57:31;35.30;;;20.12;;
13847;SDS011;6994;49.752;6.094;2023-02-15T01:59:58;49.60;;;30.73;;
13847;SDS011;6994;49.752;6.094;2023-02-15T02:02:25;43.65;;;23.02;;
13847;SDS011;6994;49.752;6.094;2023-02-15T02:04:54;36.55;;;20.48;;
13847;SDS011;6994;49.752;6.094;2023-02-15T02:07:24;37.30;;;19.87;;
13847;SDS011;6994;49.752;6.094;2023-02-15T02:09:49;34.13;;;19.92;;
13847;SDS011;6994;49.752;6.094;2023-02-15T02:12:16;39.70;;;20.58;;
13847;SDS011;6994;49.752;6.094;2023-02-15T02:14:44;35.08;;;19.92;;
13847;SDS011;6994;49.752;6.094;2023-02-15T02:17:18;42.67;;;20.95;;
13847;SDS011;6994;49.752;6.094;2023-02-15T02:26:07;54.47;;;22.35;;
13847;SDS011;6994;49.752;6.094;2023-02-15T02:33:53;52.70;;;23.17;;
13847;SDS011;6994;49.752;6.094;2023-02-15T02:39:16;71.28;;;33.47;;
13847;SDS011;6994;49.752;6.094;2023-02-15T02:42:10;74.40;;;25.58;;
13847;SDS011;6994;49.752;6.094;2023-02-15T02:44:44;58.58;;;25.25;;
13847;SDS011;6994;49.752;6.094;2023-02-15T02:47:07;55.17;;;24.20;;
13847;SDS011;6994;49.752;6.094;2023-02-15T02:49:36;46.92;;;23.92;;
13847;SDS011;6994;49.752;6.094;2023-02-15T02:52:31;51.40;;;24.20;;
13847;SDS011;6994;49.752;6.094;2023-02-15T02:54:30;58.53;;;24.65;;
13847;SDS011;6994;49.752;6.094;2023-02-15T02:56:58;65.57;;;24.98;;
13847;SDS011;6994;49.752;6.094;2023-02-15T02:59:27;60.35;;;25.23;;
13847;SDS011;6994;49.752;6.094;2023-02-15T03:01:59;60.88;;;23.20;;
13847;SDS011;6994;49.752;6.094;2023-02-15T03:04:26;82.68;;;23.95;;
13847;SDS011;6994;49.752;6.094;2023-02-15T03:06:54;52.67;;;20.10;;
13847;SDS011;6994;49.752;6.094;2023-02-15T03:09:23;69.03;;;21.75;;
13847;SDS011;6994;49.752;6.094;2023-02-15T03:11:56;60.65;;;21.73;;
13847;SDS011;6994;49.752;6.094;2023-02-15T03:14:23;68.55;;;22.87;;
13847;SDS011;6994;49.752;6.094;2023-02-15T03:16:50;53.15;;;24.58;;
13847;SDS011;6994;49.752;6.094;2023-02-15T03:19:20;78.00;;;23.87;;
13847;SDS011;6994;49.752;6.094;2023-02-15T03:21:48;72.60;;;26.05;;
13847;SDS011;6994;49.752;6.094;2023-02-15T03:24:17;78.53;;;25.92;;
13847;SDS011;6994;49.752;6.094;2023-02-15T03:26:49;95.40;;;26.98;;
13847;SDS011;6994;49.752;6.094;2023-02-15T03:29:15;107.22;;;26.80;;
13847;SDS011;6994;49.752;6.094;2023-02-15T03:31:43;105.45;;;28.02;;
13847;SDS011;6994;49.752;6.094;2023-02-15T03:34:10;100.90;;;25.83;;
13847;SDS011;6994;49.752;6.094;2023-02-15T03:36:48;65.80;;;23.52;;
13847;SDS011;6994;49.752;6.094;2023-02-15T03:39:16;87.72;;;25.40;;
13847;SDS011;6994;49.752;6.094;2023-02-15T03:41:57;171.50;;;37.10;;
13847;SDS011;6994;49.752;6.094;2023-02-15T03:47:00;201.30;;;41.83;;
13847;SDS011;6994;49.752;6.094;2023-02-15T03:49:35;88.07;;;25.08;;
13847;SDS011;6994;49.752;6.094;2023-02-15T03:52:04;76.70;;;24.87;;
13847;SDS011;6994;49.752;6.094;2023-02-15T03:54:31;113.35;;;24.35;;
13847;SDS011;6994;49.752;6.094;2023-02-15T03:57:12;137.60;;;24.40;;
13847;SDS011;6994;49.752;6.094;2023-02-15T03:59:56;87.00;;;22.37;;
13847;SDS011;6994;49.752;6.094;2023-02-15T04:05:14;88.15;;;23.67;;
13847;SDS011;6994;49.752;6.094;2023-02-15T04:07:41;83.22;;;21.25;;
13847;SDS011;6994;49.752;6.094;2023-02-15T04:10:08;52.67;;;21.08;;
13847;SDS011;6994;49.752;6.094;2023-02-15T04:12:53;61.72;;;20.85;;
13847;SDS011;6994;49.752;6.094;2023-02-15T04:15:21;76.12;;;23.55;;
13847;SDS011;6994;49.752;6.094;2023-02-15T04:18:06;83.75;;;22.15;;
13847;SDS011;6994;49.752;6.094;2023-02-15T04:20:33;58.28;;;21.77;;
13847;SDS011;6994;49.752;6.094;2023-02-15T04:23:18;71.10;;;20.73;;
13847;SDS011;6994;49.752;6.094;2023-02-15T04:26:04;51.80;;;20.92;;
13847;SDS011;6994;49.752;6.094;2023-02-15T04:28:31;67.72;;;20.30;;
13847;SDS011;6994;49.752;6.094;2023-02-15T04:30:59;71.60;;;21.58;;
13847;SDS011;6994;49.752;6.094;2023-02-15T04:33:26;86.18;;;22.48;;
13847;SDS011;6994;49.752;6.094;2023-02-15T04:35:54;90.72;;;22.90;;
13847;SDS011;6994;49.752;6.094;2023-02-15T04:38:21;91.75;;;22.65;;
13847;SDS011;6994;49.752;6.094;2023-02-15T04:40:51;126.80;;;34.00;;
13847;SDS011;6994;49.752;6.094;2023-02-15T04:43:18;101.65;;;25.98;;
13847;SDS011;6994;49.752;6.094;2023-02-15T04:45:48;56.83;;;23.02;;
13847;SDS011;6994;49.752;6.094;2023-02-15T04:48:15;69.85;;;22.85;;
13847;SDS011;6994;49.752;6.094;2023-02-15T04:50:43;53.83;;;22.60;;
13847;SDS011;6994;49.752;6.094;2023-02-15T04:53:10;66.87;;;21.10;;
13847;SDS011;6994;49.752;6.094;2023-02-15T04:55:37;65.85;;;21.25;;
13847;SDS011;6994;49.752;6.094;2023-02-15T04:58:04;47.15;;;21.10;;
13847;SDS011;6994;49.752;6.094;2023-02-15T05:00:31;62.65;;;22.13;;
13847;SDS011;6994;49.752;6.094;2023-02-15T05:02:58;62.62;;;21.55;;
13847;SDS011;6994;49.752;6.094;2023-02-15T05:05:26;50.12;;;19.33;;
13847;SDS011;6994;49.752;6.094;2023-02-15T05:07:54;48.40;;;19.30;;
13847;SDS011;6994;49.752;6.094;2023-02-15T05:10:22;61.17;;;21.05;;
13847;SDS011;6994;49.752;6.094;2023-02-15T05:12:49;72.00;;;23.17;;
13847;SDS011;6994;49.752;6.094;2023-02-15T05:15:17;72.35;;;22.55;;
13847;SDS011;6994;49.752;6.094;2023-02-15T05:17:44;76.80;;;20.58;;
13847;SDS011;6994;49.752;6.094;2023-02-15T05:20:11;83.27;;;31.17;;
13847;SDS011;6994;49.752;6.094;2023-02-15T05:22:38;69.07;;;23.98;;
13847;SDS011;6994;49.752;6.094;2023-02-15T05:25:06;62.62;;;21.23;;
13847;SDS011;6994;49.752;6.094;2023-02-15T05:27:51;53.42;;;19.02;;
13847;SDS011;6994;49.752;6.094;2023-02-15T05:30:36;63.22;;;21.73;;
13847;SDS011;6994;49.752;6.094;2023-02-15T05:33:03;49.80;;;21.20;;
13847;SDS011;6994;49.752;6.094;2023-02-15T05:35:31;49.80;;;19.52;;
13847;SDS011;6994;49.752;6.094;2023-02-15T05:37:58;51.55;;;21.25;;
13847;SDS011;6994;49.752;6.094;2023-02-15T05:40:26;52.05;;;20.40;;
13847;SDS011;6994;49.752;6.094;2023-02-15T05:42:55;33.95;;;19.65;;
13847;SDS011;6994;49.752;6.094;2023-02-15T05:45:22;45.70;;;18.80;;
13847;SDS011;6994;49.752;6.094;2023-02-15T05:47:49;47.20;;;18.90;;
13847;SDS011;6994;49.752;6.094;2023-02-15T05:50:16;63.20;;;28.33;;
13847;SDS011;6994;49.752;6.094;2023-02-15T05:52:43;51.75;;;21.73;;
13847;SDS011;6994;49.752;6.094;2023-02-15T05:55:10;42.72;;;19.25;;
13847;SDS011;6994;49.752;6.094;2023-02-15T05:57:38;47.35;;;19.33;;
13847;SDS011;6994;49.752;6.094;2023-02-15T06:00:06;41.10;;;19.40;;
13847;SDS011;6994;49.752;6.094;2023-02-15T06:02:34;45.95;;;20.85;;
13847;SDS011;6994;49.752;6.094;2023-02-15T06:05:00;49.67;;;20.42;;
13847;SDS011;6994;49.752;6.094;2023-02-15T06:07:28;41.10;;;20.20;;
13847;SDS011;6994;49.752;6.094;2023-02-15T06:09:56;43.67;;;21.10;;
13847;SDS011;6994;49.752;6.094;2023-02-15T06:12:23;38.30;;;20.40;;
13847;SDS011;6994;49.752;6.094;2023-02-15T06:14:50;44.55;;;20.98;;
13847;SDS011;6994;49.752;6.094;2023-02-15T06:17:18;75.10;;;28.25;;
13847;SDS011;6994;49.752;6.094;2023-02-15T06:19:45;53.30;;;23.27;;
13847;SDS011;6994;49.752;6.094;2023-02-15T06:22:12;60.55;;;21.00;;
13847;SDS011;6994;49.752;6.094;2023-02-15T06:24:39;37.92;;;20.02;;
13847;SDS011;6994;49.752;6.094;2023-02-15T06:27:06;62.70;;;21.45;;
13847;SDS011;6994;49.752;6.094;2023-02-15T06:29:34;81.05;;;22.17;;
13847;SDS011;6994;49.752;6.094;2023-02-15T06:32:01;67.30;;;21.92;;
13847;SDS011;6994;49.752;6.094;2023-02-15T06:34:28;46.15;;;20.80;;
13847;SDS011;6994;49.752;6.094;2023-02-15T06:36:55;58.78;;;21.25;;
13847;SDS011;6994;49.752;6.094;2023-02-15T06:39:22;65.62;;;21.67;;
13847;SDS011;6994;49.752;6.094;2023-02-15T06:41:50;71.35;;;21.58;;
13847;SDS011;6994;49.752;6.094;2023-02-15T06:44:17;61.30;;;21.55;;
13847;SDS011;6994;49.752;6.094;2023-02-15T06:46:44;40.90;;;20.98;;
13847;SDS011;6994;49.752;6.094;2023-02-15T06:49:11;50.35;;;21.95;;
13847;SDS011;6994;49.752;6.094;2023-02-15T06:51:39;45.03;;;21.02;;
13847;SDS011;6994;49.752;6.094;2023-02-15T06:54:06;51.85;;;20.65;;
13847;SDS011;6994;49.752;6.094;2023-02-15T06:56:33;49.65;;;20.75;;
13847;SDS011;6994;49.752;6.094;2023-02-15T06:59:01;60.55;;;19.50;;
13847;SDS011;6994;49.752;6.094;2023-02-15T07:01:28;47.05;;;19.25;;
13847;SDS011;6994;49.752;6.094;2023-02-15T07:03:55;59.38;;;18.92;;
13847;SDS011;6994;49.752;6.094;2023-02-15T07:06:23;44.88;;;17.95;;
13847;SDS011;6994;49.752;6.094;2023-02-15T07:08:51;64.97;;;19.48;;
13847;SDS011;6994;49.752;6.094;2023-02-15T07:11:19;47.35;;;18.20;;
13847;SDS011;6994;49.752;6.094;2023-02-15T07:14:04;45.92;;;17.95;;
13847;SDS011;6994;49.752;6.094;2023-02-15T07:16:31;39.65;;;18.33;;
13847;SDS011;6994;49.752;6.094;2023-02-15T07:18:58;36.33;;;16.58;;
13847;SDS011;6994;49.752;6.094;2023-02-15T07:21:25;46.40;;;17.15;;
13847;SDS011;6994;49.752;6.094;2023-02-15T07:23:55;30.27;;;18.02;;
13847;SDS011;6994;49.752;6.094;2023-02-15T07:26:20;49.28;;;18.83;;
13847;SDS011;6994;49.752;6.094;2023-02-15T07:28:48;44.03;;;17.10;;
13847;SDS011;6994;49.752;6.094;2023-02-15T07:31:15;40.22;;;17.50;;
13847;SDS011;6994;49.752;6.094;2023-02-15T07:33:42;43.60;;;18.05;;
13847;SDS011;6994;49.752;6.094;2023-02-15T07:36:09;38.92;;;16.92;;
13847;SDS011;6994;49.752;6.094;2023-02-15T07:38:38;33.70;;;18.60;;
13847;SDS011;6994;49.752;6.094;2023-02-15T07:41:06;43.60;;;19.27;;
13847;SDS011;6994;49.752;6.094;2023-02-15T07:43:33;40.15;;;18.87;;
13847;SDS011;6994;49.752;6.094;2023-02-15T07:46:00;30.12;;;18.50;;
13847;SDS011;6994;49.752;6.094;2023-02-15T07:48:27;40.45;;;18.10;;
13847;SDS011;6994;49.752;6.094;2023-02-15T07:50:56;43.70;;;17.25;;
13847;SDS011;6994;49.752;6.094;2023-02-15T07:53:21;47.47;;;17.65;;
13847;SDS011;6994;49.752;6.094;2023-02-15T07:55:49;37.33;;;18.00;;
13847;SDS011;6994;49.752;6.094;2023-02-15T07:58:17;45.25;;;19.20;;
13847;SDS011;6994;49.752;6.094;2023-02-15T08:00:44;39.47;;;18.02;;
13847;SDS011;6994;49.752;6.094;2023-02-15T08:03:24;30.90;;;17.87;;
13847;SDS011;6994;49.752;6.094;2023-02-15T08:05:51;56.40;;;24.67;;
13847;SDS011;6994;49.752;6.094;2023-02-15T08:08:18;46.97;;;19.73;;
13847;SDS011;6994;49.752;6.094;2023-02-15T08:11:05;51.00;;;19.02;;
13847;SDS011;6994;49.752;6.094;2023-02-15T08:13:52;48.35;;;18.35;;
13847;SDS011;6994;49.752;6.094;2023-02-15T08:16:26;33.55;;;17.10;;
13847;SDS011;6994;49.752;6.094;2023-02-15T08:18:49;48.42;;;17.95;;
13847;SDS011;6994;49.752;6.094;2023-02-15T08:21:16;30.92;;;16.73;;
13847;SDS011;6994;49.752;6.094;2023-02-15T08:23:44;42.95;;;17.08;;
13847;SDS011;6994;49.752;6.094;2023-02-15T08:26:12;36.53;;;16.08;;
13847;SDS011;6994;49.752;6.094;2023-02-15T08:28:40;38.55;;;18.98;;
13847;SDS011;6994;49.752;6.094;2023-02-15T08:31:07;38.65;;;17.52;;
13847;SDS011;6994;49.752;6.094;2023-02-15T08:33:34;38.17;;;16.55;;
13847;SDS011;6994;49.752;6.094;2023-02-15T08:36:05;37.58;;;17.58;;
13847;SDS011;6994;49.752;6.094;2023-02-15T08:38:29;56.05;;;18.52;;
13847;SDS011;6994;49.752;6.094;2023-02-15T08:40:56;44.42;;;19.87;;
13847;SDS011;6994;49.752;6.094;2023-02-15T08:43:24;41.45;;;16.65;;
13847;SDS011;6994;49.752;6.094;2023-02-15T08:45:51;45.55;;;17.58;;
13847;SDS011;6994;49.752;6.094;2023-02-15T08:48:18;41.65;;;18.62;;
13847;SDS011;6994;49.752;6.094;2023-02-15T08:50:45;53.70;;;19.35;;
13847;SDS011;6994;49.752;6.094;2023-02-15T08:53:13;46.85;;;17.60;;
13847;SDS011;6994;49.752;6.094;2023-02-15T08:55:40;38.42;;;15.50;;
13847;SDS011;6994;49.752;6.094;2023-02-15T08:58:07;34.28;;;16.98;;
13847;SDS011;6994;49.752;6.094;2023-02-15T09:00:34;44.80;;;18.77;;
13847;SDS011;6994;49.752;6.094;2023-02-15T09:03:02;64.93;;;16.80;;
13847;SDS011;6994;49.752;6.094;2023-02-15T09:05:29;26.27;;;15.02;;
13847;SDS011;6994;49.752;6.094;2023-02-15T09:07:57;31.10;;;15.25;;
13847;SDS011;6994;49.752;6.094;2023-02-15T09:10:24;32.70;;;16.15;;
13847;SDS011;6994;49.752;6.094;2023-02-15T09:12:51;26.52;;;15.50;;
13847;SDS011;6994;49.752;6.094;2023-02-15T09:15:18;32.05;;;15.30;;
13847;SDS011;6994;49.752;6.094;2023-02-15T09:17:45;36.88;;;17.33;;
13847;SDS011;6994;49.752;6.094;2023-02-15T09:20:13;36.22;;;17.23;;
13847;SDS011;6994;49.752;6.094;2023-02-15T09:22:40;38.47;;;16.65;;
13847;SDS011;6994;49.752;6.094;2023-02-15T09:25:07;24.98;;;15.70;;
13847;SDS011;6994;49.752;6.094;2023-02-15T09:27:34;33.40;;;16.10;;
13847;SDS011;6994;49.752;6.094;2023-02-15T09:30:02;29.70;;;16.40;;
13847;SDS011;6994;49.752;6.094;2023-02-15T09:32:29;28.15;;;16.75;;
13847;SDS011;6994;49.752;6.094;2023-02-15T09:34:56;32.22;;;18.17;;
13847;SDS011;6994;49.752;6.094;2023-02-15T09:37:23;23.92;;;16.73;;
13847;SDS011;6994;49.752;6.094;2023-02-15T09:39:50;31.30;;;15.27;;
13847;SDS011;6994;49.752;6.094;2023-02-15T09:42:25;30.30;;;17.70;;
13847;SDS011;6994;49.752;6.094;2023-02-15T09:50:55;27.93;;;21.13;;
13847;SDS011;6994;49.752;6.094;2023-02-15T09:53:29;26.17;;;18.17;;
13847;SDS011;6994;49.752;6.094;2023-02-15T10:09:43;27.30;;;20.10;;
13847;SDS011;6994;49.752;6.094;2023-02-15T10:20:31;22.40;;;15.18;;
13847;SDS011;6994;49.752;6.094;2023-02-15T10:28:19;23.45;;;15.43;;
13847;SDS011;6994;49.752;6.094;2023-02-15T10:30:42;25.02;;;19.17;;
13847;SDS011;6994;49.752;6.094;2023-02-15T10:33:10;24.02;;;17.37;;
13847;SDS011;6994;49.752;6.094;2023-02-15T10:35:43;21.55;;;15.48;;
13847;SDS011;6994;49.752;6.094;2023-02-15T10:38:34;21.48;;;14.87;;
13847;SDS011;6994;49.752;6.094;2023-02-15T10:51:57;26.33;;;14.75;;
13847;SDS011;6994;49.752;6.094;2023-02-15T10:54:44;21.62;;;15.02;;
13847;SDS011;6994;49.752;6.094;2023-02-15T11:02:29;22.58;;;16.08;;
13847;SDS011;6994;49.752;6.094;2023-02-15T11:07:43;24.67;;;15.50;;
13847;SDS011;6994;49.752;6.094;2023-02-15T11:10:22;21.27;;;14.75;;
13847;SDS011;6994;49.752;6.094;2023-02-15T11:12:51;24.65;;;15.88;;
13847;SDS011;6994;49.752;6.094;2023-02-15T11:15:25;23.77;;;17.00;;
13847;SDS011;6994;49.752;6.094;2023-02-15T11:17:55;25.55;;;19.73;;
13847;SDS011;6994;49.752;6.094;2023-02-15T11:20:27;24.33;;;17.05;;
13847;SDS011;6994;49.752;6.094;2023-02-15T11:22:52;23.98;;;16.90;;
13847;SDS011;6994;49.752;6.094;2023-02-15T11:25:23;24.70;;;16.55;;
13847;SDS011;6994;49.752;6.094;2023-02-15T11:27:48;29.42;;;16.95;;
13847;SDS011;6994;49.752;6.094;2023-02-15T11:30:23;25.10;;;15.77;;
13847;SDS011;6994;49.752;6.094;2023-02-15T11:32:46;20.48;;;15.73;;
13847;SDS011;6994;49.752;6.094;2023-02-15T11:38:03;21.35;;;14.55;;
13847;SDS011;6994;49.752;6.094;2023-02-15T11:40:30;21.37;;;14.20;;
13847;SDS011;6994;49.752;6.094;2023-02-15T11:43:00;23.27;;;16.12;;
13847;SDS011;6994;49.752;6.094;2023-02-15T11:45:30;15.93;;;13.75;;
13847;SDS011;6994;49.752;6.094;2023-02-15T11:47:57;19.52;;;15.45;;
13847;SDS011;6994;49.752;6.094;2023-02-15T11:50:28;18.52;;;14.63;;
13847;SDS011;6994;49.752;6.094;2023-02-15T11:52:51;17.37;;;15.35;;
13847;SDS011;6994;49.752;6.094;2023-02-15T11:55:20;20.83;;;15.13;;
13847;SDS011;6994;49.752;6.094;2023-02-15T12:00:27;22.03;;;19.60;;
13847;SDS011;6994;49.752;6.094;2023-02-15T12:03:17;18.12;;;15.60;;
13847;SDS011;6994;49.752;6.094;2023-02-15T12:05:44;18.87;;;16.00;;
13847;SDS011;6994;49.752;6.094;2023-02-15T12:08:17;19.62;;;16.00;;
13847;SDS011;6994;49.752;6.094;2023-02-15T12:10:45;19.50;;;16.12;;
13847;SDS011;6994;49.752;6.094;2023-02-15T12:13:11;20.80;;;16.45;;
13847;SDS011;6994;49.752;6.094;2023-02-15T12:15:37;19.15;;;15.05;;
13847;SDS011;6994;49.752;6.094;2023-02-15T12:18:05;20.60;;;14.23;;
13847;SDS011;6994;49.752;6.094;2023-02-15T12:20:32;17.17;;;14.87;;
13847;SDS011;6994;49.752;6.094;2023-02-15T12:22:59;18.17;;;15.77;;
13847;SDS011;6994;49.752;6.094;2023-02-15T12:25:30;24.63;;;16.20;;
13847;SDS011;6994;49.752;6.094;2023-02-15T12:28:02;21.70;;;19.00;;
13847;SDS011;6994;49.752;6.094;2023-02-15T12:30:30;21.12;;;17.00;;
13847;SDS011;6994;49.752;6.094;2023-02-15T12:33:04;20.83;;;16.55;;
13847;SDS011;6994;49.752;6.094;2023-02-15T12:35:44;21.62;;;17.02;;
13847;SDS011;6994;49.752;6.094;2023-02-15T12:40:38;23.58;;;16.17;;
13847;SDS011;6994;49.752;6.094;2023-02-15T12:43:11;24.12;;;16.87;;
13847;SDS011;6994;49.752;6.094;2023-02-15T12:45:33;23.50;;;16.33;;
13847;SDS011;6994;49.752;6.094;2023-02-15T12:48:12;21.37;;;16.95;;
13847;SDS011;6994;49.752;6.094;2023-02-15T12:50:36;23.90;;;17.20;;
13847;SDS011;6994;49.752;6.094;2023-02-15T12:53:13;25.17;;;16.52;;
13847;SDS011;6994;49.752;6.094;2023-02-15T12:55:57;20.75;;;14.98;;
13847;SDS011;6994;49.752;6.094;2023-02-15T12:58:27;20.20;;;15.88;;
13847;SDS011;6994;49.752;6.094;2023-02-15T13:03:35;27.00;;;18.60;;
13847;SDS011;6994;49.752;6.094;2023-02-15T13:06:02;22.42;;;17.62;;
13847;SDS011;6994;49.752;6.094;2023-02-15T13:08:33;24.85;;;20.88;;
13847;SDS011;6994;49.752;6.094;2023-02-15T13:11:02;20.65;;;17.05;;
13847;SDS011;6994;49.752;6.094;2023-02-15T13:13:28;22.42;;;17.60;;
13847;SDS011;6994;49.752;6.094;2023-02-15T13:16:02;23.38;;;17.25;;
13847;SDS011;6994;49.752;6.094;2023-02-15T13:18:42;24.98;;;17.25;;
13847;SDS011;6994;49.752;6.094;2023-02-15T13:23:36;22.50;;;18.35;;
13847;SDS011;6994;49.752;6.094;2023-02-15T13:26:04;23.83;;;18.20;;
13847;SDS011;6994;49.752;6.094;2023-02-15T13:28:39;21.52;;;17.37;;
13847;SDS011;6994;49.752;6.094;2023-02-15T13:31:04;24.52;;;16.02;;
13847;SDS011;6994;49.752;6.094;2023-02-15T13:33:33;26.35;;;16.48;;
13847;SDS011;6994;49.752;6.094;2023-02-15T13:36:16;19.62;;;15.32;;
13847;SDS011;6994;49.752;6.094;2023-02-15T13:38:55;21.80;;;16.40;;
13847;SDS011;6994;49.752;6.094;2023-02-15T13:41:27;22.83;;;16.73;;
13847;SDS011;6994;49.752;6.094;2023-02-15T13:46:32;22.87;;;16.23;;
13847;SDS011;6994;49.752;6.094;2023-02-15T13:49:01;19.92;;;15.57;;
13847;SDS011;6994;49.752;6.094;2023-02-15T13:51:32;26.65;;;17.50;;
13847;SDS011;6994;49.752;6.094;2023-02-15T13:54:16;22.17;;;16.02;;
13847;SDS011;6994;49.752;6.094;2023-02-15T13:56:46;19.23;;;16.23;;
13847;SDS011;6994;49.752;6.094;2023-02-15T13:59:20;24.08;;;16.42;;
13847;SDS011;6994;49.752;6.094;2023-02-15T14:10:14;21.58;;;15.50;;
13847;SDS011;6994;49.752;6.094;2023-02-15T14:12:58;24.15;;;18.00;;
13847;SDS011;6994;49.752;6.094;2023-02-15T14:15:32;22.13;;;16.70;;
13847;SDS011;6994;49.752;6.094;2023-02-15T14:24:02;24.25;;;15.05;;
13847;SDS011;6994;49.752;6.094;2023-02-15T14:31:43;23.17;;;16.17;;
13847;SDS011;6994;49.752;6.094;2023-02-15T14:34:22;26.62;;;14.98;;
13847;SDS011;6994;49.752;6.094;2023-02-15T14:36:49;22.48;;;15.77;;
13847;SDS011;6994;49.752;6.094;2023-02-15T14:39:22;22.02;;;15.45;;
13847;SDS011;6994;49.752;6.094;2023-02-15T14:42:14;19.85;;;15.30;;
13847;SDS011;6994;49.752;6.094;2023-02-15T14:44:40;20.20;;;14.63;;
13847;SDS011;6994;49.752;6.094;2023-02-15T14:47:19;25.67;;;18.15;;
13847;SDS011;6994;49.752;6.094;2023-02-15T14:49:45;18.48;;;14.20;;
13847;SDS011;6994;49.752;6.094;2023-02-15T14:52:12;22.30;;;16.17;;
13847;SDS011;6994;49.752;6.094;2023-02-15T14:59:50;19.08;;;15.00;;
13847;SDS011;6994;49.752;6.094;2023-02-15T15:05:16;22.35;;;16.00;;
13847;SDS011;6994;49.752;6.094;2023-02-15T15:07:42;22.55;;;16.52;;
13847;SDS011;6994;49.752;6.094;2023-02-15T15:12:55;19.77;;;15.02;;
13847;SDS011;6994;49.752;6.094;2023-02-15T15:18:02;25.17;;;15.35;;
13847;SDS011;6994;49.752;6.094;2023-02-15T15:20:39;24.50;;;15.95;;
13847;SDS011;6994;49.752;6.094;2023-02-15T15:25:44;19.65;;;15.57;;
13847;SDS011;6994;49.752;6.094;2023-02-15T15:31:03;24.43;;;19.87;;
13847;SDS011;6994;49.752;6.094;2023-02-15T15:33:54;25.60;;;19.65;;
13847;SDS011;6994;49.752;6.094;2023-02-15T15:39:12;20.85;;;16.23;;
13847;SDS011;6994;49.752;6.094;2023-02-15T15:49:57;23.92;;;15.73;;
13847;SDS011;6994;49.752;6.094;2023-02-15T15:52:24;23.67;;;15.73;;
13847;SDS011;6994;49.752;6.094;2023-02-15T15:54:54;24.40;;;15.00;;
13847;SDS011;6994;49.752;6.094;2023-02-15T15:57:32;23.12;;;16.62;;
13847;SDS011;6994;49.752;6.094;2023-02-15T16:00:00;25.10;;;17.00;;
13847;SDS011;6994;49.752;6.094;2023-02-15T16:02:27;27.35;;;18.00;;
13847;SDS011;6994;49.752;6.094;2023-02-15T16:05:05;26.30;;;17.37;;
13847;SDS011;6994;49.752;6.094;2023-02-15T16:07:25;22.33;;;15.60;;
13847;SDS011;6994;49.752;6.094;2023-02-15T16:09:59;28.38;;;16.62;;
13847;SDS011;6994;49.752;6.094;2023-02-15T16:12:29;30.27;;;16.27;;
13847;SDS011;6994;49.752;6.094;2023-02-15T16:14:55;28.75;;;17.00;;
13847;SDS011;6994;49.752;6.094;2023-02-15T16:17:26;27.58;;;20.98;;
13847;SDS011;6994;49.752;6.094;2023-02-15T16:19:51;25.88;;;17.42;;
13847;SDS011;6994;49.752;6.094;2023-02-15T16:22:23;23.67;;;16.45;;
13847;SDS011;6994;49.752;6.094;2023-02-15T16:27:35;26.12;;;20.02;;
13847;SDS011;6994;49.752;6.094;2023-02-15T16:33:04;25.58;;;17.35;;
13847;SDS011;6994;49.752;6.094;2023-02-15T16:35:30;29.63;;;22.00;;
13847;SDS011;6994;49.752;6.094;2023-02-15T16:37:58;24.33;;;17.92;;
13847;SDS011;6994;49.752;6.094;2023-02-15T16:42:56;32.00;;;17.33;;
13847;SDS011;6994;49.752;6.094;2023-02-15T16:45:23;26.83;;;21.20;;
13847;SDS011;6994;49.752;6.094;2023-02-15T16:47:50;28.17;;;18.30;;
13847;SDS011;6994;49.752;6.094;2023-02-15T16:50:18;22.00;;;16.40;;
13847;SDS011;6994;49.752;6.094;2023-02-15T16:52:45;25.02;;;17.98;;
13847;SDS011;6994;49.752;6.094;2023-02-15T16:55:22;27.58;;;17.12;;
13847;SDS011;6994;49.752;6.094;2023-02-15T16:57:49;26.70;;;17.02;;
13847;SDS011;6994;49.752;6.094;2023-02-15T17:00:18;24.63;;;16.50;;
13847;SDS011;6994;49.752;6.094;2023-02-15T17:02:54;29.52;;;16.70;;
13847;SDS011;6994;49.752;6.094;2023-02-15T17:05:20;24.50;;;15.80;;
13847;SDS011;6994;49.752;6.094;2023-02-15T17:07:51;27.85;;;18.17;;
13847;SDS011;6994;49.752;6.094;2023-02-15T17:10:29;26.30;;;17.05;;
13847;SDS011;6994;49.752;6.094;2023-02-15T17:13:09;25.85;;;16.83;;
13847;SDS011;6994;49.752;6.094;2023-02-15T17:15:34;26.35;;;16.92;;
13847;SDS011;6994;49.752;6.094;2023-02-15T17:17:58;31.37;;;16.02;;
13847;SDS011;6994;49.752;6.094;2023-02-15T17:20:25;28.95;;;16.95;;